Terminal Aerodrome Forecast
Issued by NWS Jackson, MS

Home | Current Version | Previous Version | Text Only | Print | Product List | Glossary On
Versions: 1 2 3 4 5 6 7 8 9 10 11 12 13 14 15 16 17 18 19
000
FTUS44 KMEG 291415 AAA
TAFTUP
TAF AMD
KTUP 291415Z 2914/3012 15014G20KT P6SM BKN025
     FM291600 16015G25KT P6SM SCT025 BKN035
     FM291800 19018G28KT P6SM SCT035 BKN250
     FM300000 17012G20KT P6SM SCT250
     FM300600 18016G22KT P6SM BKN025 BKN250 WS020/21055KT
     FM300800 18016G22KT P6SM OVC015 WS020/21055KT=

USA.gov is the U.S. government's official web portal to all federal, state and local government web resources and services.